createdAt,value
2022-11-09T00:00:01.866Z,2.25
2022-11-09T00:02:32.403Z,2.60
2022-11-09T00:04:59.940Z,2.50
2022-11-09T00:07:30.047Z,2.15
2022-11-09T00:09:59.891Z,2.50
2022-11-09T00:12:36.025Z,2.65
2022-11-09T00:15:05.554Z,2.63
2022-11-09T00:17:35.420Z,2.42
2022-11-09T00:20:08.327Z,2.53
2022-11-09T00:22:41.253Z,2.75
2022-11-09T00:25:13.965Z,2.08
2022-11-09T00:27:40.811Z,2.28
2022-11-09T00:30:14.654Z,2.20
2022-11-09T00:32:41.435Z,2.60
2022-11-09T00:35:11.438Z,2.85
2022-11-09T00:37:38.324Z,2.78
2022-11-09T00:40:06.048Z,2.58
2022-11-09T00:42:35.321Z,3.22
2022-11-09T00:45:04.814Z,2.38
2022-11-09T00:47:37.427Z,2.60
2022-11-09T00:50:07.338Z,2.47
2022-11-09T00:52:44.933Z,2.35
2022-11-09T00:55:14.318Z,2.78
2022-11-09T00:57:44.204Z,2.40
2022-11-09T01:00:11.742Z,2.47
2022-11-09T01:02:41.626Z,2.90
2022-11-09T01:05:12.141Z,2.55
2022-11-09T01:07:45.164Z,2.40
2022-11-09T01:10:14.949Z,2.85
2022-11-09T01:12:44.812Z,2.80
2022-11-09T01:15:11.991Z,2.60
2022-11-09T01:17:46.264Z,2.40
2022-11-09T01:20:13.315Z,2.05
2022-11-09T01:22:40.138Z,2.67
2022-11-09T01:25:11.705Z,2.20
2022-11-09T01:27:41.213Z,2.70
2022-11-09T01:30:08.306Z,2.35
2022-11-09T01:32:38.375Z,2.35
2022-11-09T01:35:05.425Z,2.67
2022-11-09T01:37:32.213Z,2.47
2022-11-09T01:39:58.980Z,2.55
2022-11-09T01:42:29.213Z,2.42
2022-11-09T01:45:26.174Z,3.15
2022-11-09T01:47:57.977Z,2.80
2022-11-09T01:50:33.955Z,2.00
2022-11-09T01:53:06.381Z,2.22
2022-11-09T01:55:37.719Z,3.20
2022-11-09T01:58:16.711Z,2.35
2022-11-09T02:00:51.104Z,2.50
2022-11-09T02:03:24.119Z,2.42
2022-11-09T02:05:57.067Z,2.40
2022-11-09T02:08:31.661Z,2.50
2022-11-09T02:11:10.025Z,2.92
2022-11-09T02:13:42.321Z,2.42
2022-11-09T02:16:16.591Z,2.95
2022-11-09T02:18:57.869Z,2.88
2022-11-09T02:21:30.089Z,2.85
2022-11-09T02:23:57.594Z,2.33
2022-11-09T02:26:33.471Z,2.30
2022-11-09T02:29:04.331Z,2.78
2022-11-09T02:31:37.533Z,2.70
2022-11-09T02:34:10.015Z,2.78
2022-11-09T02:36:40.007Z,2.13
2022-11-09T02:39:09.858Z,2.35
2022-11-09T02:42:02.755Z,2.95
2022-11-09T02:44:31.387Z,2.72
2022-11-09T02:47:06.950Z,2.75
2022-11-09T02:49:36.871Z,3.10
2022-11-09T02:52:07.722Z,3.35
2022-11-09T02:54:34.542Z,2.67
2022-11-09T02:57:07.804Z,2.75
2022-11-09T02:59:37.922Z,2.45
2022-11-09T03:02:10.366Z,2.03
2022-11-09T03:04:44.234Z,2.17
2022-11-09T03:07:18.121Z,1.75
2022-11-09T03:09:46.412Z,2.00
2022-11-09T03:12:31.266Z,2.70
2022-11-09T03:15:02.296Z,2.08
2022-11-09T03:17:29.278Z,2.83
2022-11-09T03:19:56.035Z,2.40
2022-11-09T03:22:29.317Z,2.38
2022-11-09T03:24:59.176Z,2.42
2022-11-09T03:27:29.157Z,2.45
2022-11-09T03:30:04.878Z,3.17
2022-11-09T03:32:37.335Z,3.10
2022-11-09T03:35:12.928Z,2.63
2022-11-09T03:37:42.804Z,2.50
2022-11-09T03:40:15.488Z,2.70
2022-11-09T03:42:46.552Z,2.80
2022-11-09T03:45:16.914Z,3.10
2022-11-09T03:47:47.555Z,2.90
2022-11-09T03:50:18.422Z,2.70
2022-11-09T03:52:48.442Z,2.88
2022-11-09T03:55:18.775Z,2.67
2022-11-09T03:57:48.362Z,2.67
2022-11-09T04:00:19.504Z,2.58
2022-11-09T04:02:52.028Z,2.92
2022-11-09T04:05:22.508Z,3.15
2022-11-09T04:07:56.463Z,3.42
2022-11-09T04:10:24.425Z,2.97
2022-11-09T04:12:51.565Z,3.63
2022-11-09T04:15:24.737Z,3.90
2022-11-09T04:18:01.398Z,3.72
2022-11-09T04:20:35.184Z,3.60
2022-11-09T04:23:08.692Z,3.85
2022-11-09T04:25:42.183Z,3.38
2022-11-09T04:28:11.005Z,4.05
2022-11-09T04:30:38.276Z,3.78
2022-11-09T04:33:12.397Z,3.97
2022-11-09T04:35:42.717Z,3.42
2022-11-09T04:38:12.110Z,3.75
2022-11-09T04:40:45.936Z,3.03
2022-11-09T04:43:19.036Z,3.90
2022-11-09T04:45:52.294Z,3.28
2022-11-09T04:48:22.030Z,3.10
2022-11-09T04:50:57.941Z,3.40
2022-11-09T04:53:32.720Z,3.03
2022-11-09T04:56:03.026Z,3.20
2022-11-09T04:58:35.771Z,3.97
2022-11-09T05:01:13.022Z,3.03
2022-11-09T05:03:43.102Z,3.10
2022-11-09T05:06:31.636Z,2.75
2022-11-09T05:08:59.522Z,3.40
2022-11-09T05:11:44.905Z,3.00
2022-11-09T05:14:15.080Z,2.70
2022-11-09T05:16:42.156Z,3.20
2022-11-09T05:19:15.441Z,2.55
2022-11-09T05:21:42.867Z,2.60
2022-11-09T05:24:16.579Z,3.08
2022-11-09T05:26:46.575Z,2.75
2022-11-09T05:29:17.071Z,3.58
2022-11-09T05:31:52.323Z,2.63
2022-11-09T05:34:19.733Z,2.83
2022-11-09T05:36:49.723Z,2.67
2022-11-09T05:39:20.003Z,3.03
2022-11-09T05:41:52.731Z,2.65
2022-11-09T05:44:22.652Z,2.45
2022-11-09T05:46:49.529Z,3.00
2022-11-09T05:49:20.551Z,2.58
2022-11-09T05:51:53.658Z,2.70
2022-11-09T05:54:26.978Z,3.25
2022-11-09T05:56:58.732Z,2.67
2022-11-09T05:59:31.504Z,2.90
2022-11-09T06:01:58.612Z,2.67
2022-11-09T06:04:28.321Z,3.13
2022-11-09T06:06:59.177Z,2.92
2022-11-09T06:09:29.063Z,3.10
2022-11-09T06:11:59.153Z,3.00
2022-11-09T06:14:26.082Z,3.55
2022-11-09T06:16:59.288Z,2.50
2022-11-09T06:19:26.456Z,3.47
2022-11-09T06:21:53.642Z,3.47
2022-11-09T06:24:20.567Z,2.75
2022-11-09T06:26:50.803Z,3.03
2022-11-09T06:29:18.061Z,3.35
2022-11-09T06:31:47.938Z,4.30
2022-11-09T06:34:16.673Z,3.53
2022-11-09T06:36:46.570Z,3.85
2022-11-09T06:39:16.534Z,3.90
2022-11-09T06:41:47.204Z,2.92
2022-11-09T06:44:14.822Z,3.35
2022-11-09T06:46:41.907Z,3.60
2022-11-09T06:49:11.888Z,3.88
2022-11-09T06:51:44.691Z,3.60
2022-11-09T06:54:12.404Z,3.38
2022-11-09T06:56:42.350Z,4.50
2022-11-09T06:59:15.423Z,3.72
2022-11-09T07:01:44.938Z,3.67
2022-11-09T07:04:15.729Z,4.28
2022-11-09T07:06:43.176Z,5.18
2022-11-09T07:09:10.806Z,3.97
2022-11-09T07:11:40.669Z,4.10
2022-11-09T07:14:07.474Z,3.95
2022-11-09T07:16:38.241Z,4.22
2022-11-09T07:19:11.266Z,4.63
2022-11-09T07:21:38.200Z,4.43
2022-11-09T07:24:14.585Z,5.00
2022-11-09T07:26:43.865Z,4.97
2022-11-09T07:29:15.874Z,4.38
2022-11-09T07:31:43.561Z,4.93
2022-11-09T07:34:13.432Z,4.60
2022-11-09T07:36:40.235Z,4.43
2022-11-09T07:39:13.319Z,4.65
2022-11-09T07:41:40.143Z,4.47
2022-11-09T07:44:07.167Z,5.28
2022-11-09T07:46:38.015Z,5.10
2022-11-09T07:49:07.799Z,4.28
2022-11-09T07:51:38.353Z,4.53
2022-11-09T07:54:08.103Z,4.47
2022-11-09T07:56:35.227Z,4.38
2022-11-09T07:59:04.491Z,4.78
2022-11-09T08:01:32.364Z,4.85
2022-11-09T08:03:59.357Z,5.18
2022-11-09T08:06:30.136Z,4.50
2022-11-09T08:09:00.432Z,5.20
2022-11-09T08:11:27.544Z,4.97
2022-11-09T08:13:57.480Z,5.70
2022-11-09T08:16:24.472Z,4.53
2022-11-09T08:18:54.189Z,4.68
2022-11-09T08:21:21.325Z,4.88
2022-11-09T08:23:48.141Z,4.35
2022-11-09T08:26:18.593Z,4.63
2022-11-09T08:28:45.552Z,3.05
2022-11-09T08:31:15.387Z,4.30
2022-11-09T08:33:45.685Z,5.53
2022-11-09T08:36:17.752Z,4.97
2022-11-09T08:38:45.766Z,3.88
2022-11-09T08:41:16.150Z,4.93
2022-11-09T08:43:46.164Z,5.03
2022-11-09T08:46:19.513Z,4.35
2022-11-09T08:48:46.449Z,4.05
2022-11-09T08:51:13.830Z,4.72
2022-11-09T08:53:41.925Z,4.53
2022-11-09T08:56:12.548Z,4.22
2022-11-09T08:58:39.700Z,4.78
2022-11-09T09:01:09.942Z,4.80
2022-11-09T09:03:40.836Z,3.90
2022-11-09T09:06:08.767Z,4.68
2022-11-09T09:08:37.545Z,4.63
2022-11-09T09:11:04.924Z,4.38
2022-11-09T09:13:37.794Z,4.65
2022-11-09T09:16:10.030Z,5.32
2022-11-09T09:18:42.641Z,5.32
2022-11-09T09:21:12.823Z,4.68
2022-11-09T09:23:39.801Z,4.75
2022-11-09T09:26:06.807Z,5.05
2022-11-09T09:28:33.861Z,5.32
2022-11-09T09:31:01.364Z,5.43
2022-11-09T09:33:34.244Z,4.82
2022-11-09T09:36:01.229Z,4.78
2022-11-09T09:38:29.491Z,4.00
2022-11-09T09:41:00.716Z,5.00
2022-11-09T09:43:47.886Z,4.82
2022-11-09T09:46:21.835Z,5.80
2022-11-09T09:48:51.151Z,4.45
2022-11-09T09:51:25.036Z,5.07
2022-11-09T09:53:57.717Z,4.68
2022-11-09T09:56:27.144Z,4.25
2022-11-09T09:59:12.184Z,4.03
2022-11-09T10:01:42.605Z,5.50
2022-11-09T10:04:22.931Z,3.92
2022-11-09T10:07:03.095Z,4.97
2022-11-09T10:09:51.671Z,4.15
2022-11-09T10:12:24.726Z,4.45
2022-11-09T10:15:06.843Z,5.40
2022-11-09T10:20:42.789Z,4.30
2022-11-09T10:23:24.189Z,5.07
2022-11-09T10:26:14.514Z,5.20
2022-11-09T10:29:09.615Z,5.10
2022-11-09T10:31:34.847Z,5.13
2022-11-09T10:34:14.257Z,4.95
2022-11-09T10:36:45.701Z,3.85
2022-11-09T10:39:15.746Z,5.57
2022-11-09T10:41:45.927Z,5.45
2022-11-09T10:44:19.245Z,5.15
2022-11-09T10:47:07.749Z,5.55
2022-11-09T10:49:35.509Z,1.52
2022-11-09T10:52:05.726Z,4.43
2022-11-09T10:54:38.332Z,5.10
2022-11-09T10:57:16.956Z,4.50
2022-11-09T10:59:50.064Z,4.30
2022-11-09T11:02:28.483Z,4.00
2022-11-09T11:05:07.433Z,4.22
2022-11-09T11:07:36.068Z,4.50
2022-11-09T11:10:19.028Z,3.22
2022-11-09T11:12:47.398Z,2.30
2022-11-09T11:15:29.306Z,2.60
2022-11-09T11:18:05.828Z,1.77
2022-11-09T11:20:34.326Z,1.75
2022-11-09T11:23:15.061Z,1.98
2022-11-09T11:25:53.951Z,1.45
2022-11-09T11:28:33.702Z,1.73
2022-11-09T11:31:00.725Z,2.03
2022-11-09T11:33:28.078Z,1.80
2022-11-09T11:35:58.826Z,1.50
2022-11-09T11:38:43.624Z,1.55
2022-11-09T11:41:20.968Z,1.80
2022-11-09T11:43:51.200Z,1.70
2022-11-09T11:46:36.889Z,1.85
2022-11-09T11:49:21.976Z,1.80
2022-11-09T11:52:04.087Z,1.80
2022-11-09T11:54:41.118Z,1.55
2022-11-09T11:57:17.985Z,1.77
2022-11-09T11:59:54.280Z,1.70
2022-11-09T12:02:39.711Z,1.60
2022-11-09T12:05:30.152Z,1.25
2022-11-09T12:08:05.519Z,1.58
2022-11-09T12:10:41.432Z,1.30
2022-11-09T12:13:27.280Z,1.48
2022-11-09T12:16:21.204Z,1.45
2022-11-09T12:18:59.158Z,1.30
2022-11-09T12:21:34.849Z,1.60
2022-11-09T12:24:06.351Z,1.17
2022-11-09T12:27:10.869Z,1.30
2022-11-09T12:29:53.786Z,1.30
2022-11-09T12:32:36.635Z,1.25
2022-11-09T12:35:12.570Z,1.50
2022-11-09T12:37:43.918Z,1.17
2022-11-09T12:40:14.241Z,1.20
2022-11-09T12:42:51.925Z,1.38
2022-11-09T12:45:27.910Z,1.13
2022-11-09T12:48:00.158Z,1.02
2022-11-09T12:50:27.766Z,1.15
2022-11-09T12:52:57.863Z,1.35
2022-11-09T12:55:40.718Z,1.13
2022-11-09T12:58:07.718Z,1.10
2022-11-09T13:00:34.643Z,1.33
2022-11-09T13:03:19.100Z,1.13
2022-11-09T13:05:48.795Z,0.80
2022-11-09T13:08:26.552Z,1.00
2022-11-09T13:11:22.064Z,0.90
2022-11-09T13:13:55.672Z,1.15
2022-11-09T13:16:33.821Z,0.88
2022-11-09T13:19:03.264Z,1.10
2022-11-09T13:21:32.169Z,0.93
2022-11-09T13:24:23.159Z,0.90
2022-11-09T13:26:52.514Z,1.20
2022-11-09T13:29:19.752Z,1.23
2022-11-09T13:32:04.086Z,1.02
2022-11-09T13:34:44.238Z,1.90
2022-11-09T13:37:30.312Z,1.27
2022-11-09T13:39:57.209Z,1.15
2022-11-09T13:42:33.960Z,1.05
2022-11-09T13:45:19.430Z,1.20
2022-11-09T13:47:50.749Z,1.10
2022-11-09T13:50:22.593Z,1.20
2022-11-09T13:52:54.444Z,1.08
2022-11-09T13:55:35.834Z,1.23
2022-11-09T13:58:11.218Z,1.08
2022-11-09T14:00:41.880Z,0.90
2022-11-09T14:03:21.371Z,1.20
2022-11-09T14:05:58.510Z,1.00
2022-11-09T14:08:30.042Z,1.08
2022-11-09T14:11:15.441Z,1.05
2022-11-09T14:14:03.612Z,0.90
2022-11-09T14:16:49.504Z,1.27
2022-11-09T14:19:16.463Z,1.05
2022-11-09T14:21:47.604Z,1.13
2022-11-09T14:24:18.849Z,1.10
2022-11-09T14:27:01.180Z,1.25
2022-11-09T14:29:33.253Z,1.13
2022-11-09T14:32:16.722Z,1.30
2022-11-09T14:34:49.298Z,1.10
2022-11-09T14:37:21.911Z,1.30
2022-11-09T14:39:50.306Z,1.30
2022-11-09T14:42:21.913Z,1.00
2022-11-09T14:44:49.523Z,1.10
2022-11-09T14:47:29.632Z,1.15
2022-11-09T14:50:01.876Z,1.20
2022-11-09T14:52:31.867Z,1.63
2022-11-09T14:54:59.049Z,1.25
2022-11-09T14:57:29.272Z,1.40
2022-11-09T14:59:58.080Z,1.23
2022-11-09T15:02:30.588Z,1.13
2022-11-09T15:05:04.993Z,1.20
2022-11-09T15:07:38.260Z,0.98
2022-11-09T15:10:10.709Z,1.00
2022-11-09T15:12:46.255Z,1.20
2022-11-09T15:15:18.383Z,1.13
2022-11-09T15:17:46.324Z,1.00
2022-11-09T15:20:16.020Z,1.30
2022-11-09T15:22:55.706Z,1.10
2022-11-09T15:25:30.510Z,1.15
2022-11-09T15:28:04.046Z,1.17
2022-11-09T15:30:45.658Z,1.10
2022-11-09T15:33:19.984Z,1.10
2022-11-09T15:35:54.048Z,1.38
2022-11-09T15:38:30.511Z,1.40
2022-11-09T15:40:57.520Z,1.50
2022-11-09T15:43:24.553Z,1.17
2022-11-09T15:45:53.785Z,0.88
2022-11-09T15:48:21.033Z,0.90
2022-11-09T15:50:52.668Z,1.00
2022-11-09T15:53:21.912Z,1.08
2022-11-09T15:55:52.068Z,1.08
2022-11-09T15:58:47.199Z,1.10
2022-11-09T16:01:14.559Z,1.05
2022-11-09T16:03:47.478Z,1.10
2022-11-09T16:06:18.106Z,1.85
2022-11-09T16:08:48.906Z,1.48
2022-11-09T16:11:34.493Z,1.10
2022-11-09T16:14:01.881Z,0.98
2022-11-09T16:16:39.111Z,1.25
2022-11-09T16:19:07.966Z,1.10
2022-11-09T16:21:34.790Z,1.23
2022-11-09T16:24:01.702Z,1.10
2022-11-09T16:26:28.794Z,0.93
2022-11-09T16:29:01.641Z,1.17
2022-11-09T16:31:50.664Z,1.30
2022-11-09T16:34:21.263Z,1.17
2022-11-09T16:36:53.846Z,1.08
2022-11-09T16:42:39.312Z,2.08
2022-11-09T16:45:16.462Z,1.35
2022-11-09T16:47:45.627Z,1.35
2022-11-09T16:50:12.671Z,1.25
2022-11-09T16:52:42.486Z,0.98
2022-11-09T16:55:13.166Z,1.20
2022-11-09T16:57:43.399Z,1.02
2022-11-09T17:00:13.432Z,1.10
2022-11-09T17:02:42.952Z,1.00
2022-11-09T17:05:10.939Z,1.10
2022-11-09T17:07:42.817Z,1.30
2022-11-09T17:10:11.076Z,1.00
2022-11-09T17:12:38.087Z,1.10
2022-11-09T17:15:06.481Z,0.90
2022-11-09T17:17:39.161Z,1.00
2022-11-09T17:20:09.243Z,1.10
2022-11-09T17:22:46.054Z,1.25
2022-11-09T17:25:16.789Z,1.50
2022-11-09T17:27:46.925Z,1.38
2022-11-09T17:30:16.310Z,1.38
2022-11-09T17:32:48.819Z,1.50
2022-11-09T17:35:19.291Z,1.73
2022-11-09T17:37:46.103Z,1.10
2022-11-09T17:40:13.184Z,1.13
2022-11-09T17:42:43.238Z,1.73
2022-11-09T17:45:14.562Z,1.30
2022-11-09T17:47:45.147Z,1.40
2022-11-09T17:50:12.051Z,1.48
2022-11-09T17:52:39.207Z,1.13
2022-11-09T17:55:11.391Z,1.27
2022-11-09T17:57:41.346Z,1.10
2022-11-09T18:00:10.396Z,1.10
2022-11-09T18:02:42.608Z,1.20
2022-11-09T18:05:13.084Z,1.70
2022-11-09T18:07:43.326Z,1.90
2022-11-09T18:10:10.635Z,1.48
2022-11-09T18:12:40.706Z,2.03
2022-11-09T18:15:07.717Z,1.15
2022-11-09T18:17:37.035Z,1.40
2022-11-09T18:20:04.713Z,1.65
2022-11-09T18:22:31.633Z,1.50
2022-11-09T18:25:01.512Z,1.35
2022-11-09T18:27:30.833Z,1.20
2022-11-09T18:29:58.385Z,1.00
2022-11-09T18:32:25.477Z,1.15
2022-11-09T18:34:55.287Z,1.30
2022-11-09T18:37:26.120Z,2.20
2022-11-09T18:39:53.113Z,1.73
2022-11-09T18:42:20.238Z,1.40
2022-11-09T18:44:50.207Z,1.50
2022-11-09T18:47:17.997Z,1.58
2022-11-09T18:49:47.899Z,1.23
2022-11-09T18:52:17.877Z,1.30
2022-11-09T18:54:48.080Z,1.10
2022-11-09T18:57:19.973Z,1.35
2022-11-09T18:59:47.408Z,1.30
2022-11-09T19:02:21.680Z,1.40
2022-11-09T19:04:48.841Z,1.17
2022-11-09T19:07:19.064Z,1.15
2022-11-09T19:09:47.484Z,1.10
2022-11-09T19:12:15.108Z,1.30
2022-11-09T19:14:42.083Z,1.50
2022-11-09T19:17:11.513Z,1.13
2022-11-09T19:19:38.381Z,1.20
2022-11-09T19:22:10.527Z,1.10
2022-11-09T19:24:43.839Z,1.20
2022-11-09T19:27:17.763Z,1.02
2022-11-09T19:29:48.178Z,1.15
2022-11-09T19:32:16.378Z,1.30
2022-11-09T19:34:46.970Z,1.40
2022-11-09T19:37:14.879Z,1.40
2022-11-09T19:39:45.436Z,1.70
2022-11-09T19:42:12.234Z,1.60
2022-11-09T19:44:44.911Z,1.75
2022-11-09T19:47:17.031Z,2.13
2022-11-09T19:49:43.881Z,1.95
2022-11-09T19:52:14.166Z,2.00
2022-11-09T19:54:43.509Z,1.95
2022-11-09T19:57:13.890Z,1.50
2022-11-09T19:59:44.276Z,1.58
2022-11-09T20:02:11.520Z,1.30
2022-11-09T20:04:41.708Z,1.70
2022-11-09T20:07:12.047Z,1.33
2022-11-09T20:09:39.632Z,1.50
2022-11-09T20:12:29.769Z,1.20
2022-11-09T20:15:05.146Z,1.48
2022-11-09T20:17:35.852Z,1.52
2022-11-09T20:20:02.755Z,0.95
2022-11-09T20:22:33.125Z,1.50
2022-11-09T20:25:02.567Z,1.40
2022-11-09T20:27:33.489Z,1.48
2022-11-09T20:30:00.806Z,1.48
2022-11-09T20:32:30.356Z,1.30
2022-11-09T20:34:57.287Z,1.63
2022-11-09T20:37:24.159Z,1.52
2022-11-09T20:39:52.384Z,1.55
2022-11-09T20:42:19.278Z,1.50
2022-11-09T20:44:49.234Z,1.45
2022-11-09T20:47:35.433Z,1.60
2022-11-09T20:50:06.926Z,1.30
2022-11-09T20:52:34.206Z,1.10
2022-11-09T20:55:07.850Z,1.40
2022-11-09T20:57:37.845Z,1.27
2022-11-09T21:00:10.358Z,1.58
2022-11-09T21:02:40.830Z,1.60
2022-11-09T21:05:17.755Z,1.35
2022-11-09T21:07:47.710Z,1.27
2022-11-09T21:10:18.342Z,1.63
2022-11-09T21:12:48.625Z,1.63
2022-11-09T21:15:21.106Z,1.88
2022-11-09T21:17:50.994Z,1.77
2022-11-09T21:20:17.907Z,1.63
2022-11-09T21:23:03.327Z,1.58
2022-11-09T21:25:48.382Z,1.48
2022-11-09T21:28:34.982Z,1.60
2022-11-09T21:31:02.476Z,1.40
2022-11-09T21:33:35.551Z,1.38
2022-11-09T21:36:11.762Z,1.20
2022-11-09T21:38:42.280Z,1.85
2022-11-09T21:41:28.038Z,1.52
2022-11-09T21:43:57.636Z,1.50
2022-11-09T21:46:25.802Z,1.50
2022-11-09T21:48:55.610Z,1.88
2022-11-09T21:51:27.903Z,1.73
2022-11-09T21:54:01.435Z,1.80
2022-11-09T21:56:28.805Z,1.92
2022-11-09T21:58:58.186Z,1.67
2022-11-09T22:01:28.188Z,1.30
2022-11-09T22:03:58.597Z,1.70
2022-11-09T22:06:35.220Z,1.63
2022-11-09T22:09:08.264Z,1.00
2022-11-09T22:11:53.870Z,1.35
2022-11-09T22:14:39.162Z,1.42
2022-11-09T22:17:09.152Z,1.23
2022-11-09T22:19:56.303Z,1.45
2022-11-09T22:22:27.248Z,1.30
2022-11-09T22:24:57.390Z,1.42
2022-11-09T22:27:24.365Z,1.20
2022-11-09T22:29:54.391Z,1.50
2022-11-09T22:32:21.742Z,1.75
2022-11-09T22:34:52.005Z,1.40
2022-11-09T22:37:19.040Z,1.50
2022-11-09T22:39:47.634Z,1.52
2022-11-09T22:42:14.855Z,1.27
2022-11-09T22:44:41.720Z,1.38
2022-11-09T22:47:13.557Z,1.40
2022-11-09T22:49:42.144Z,1.40
2022-11-09T22:52:09.826Z,1.42
2022-11-09T22:54:41.090Z,1.50
2022-11-09T22:57:17.672Z,1.33
2022-11-09T22:59:47.675Z,1.05
2022-11-09T23:02:17.668Z,1.00
2022-11-09T23:04:48.108Z,1.30
2022-11-09T23:07:16.179Z,1.27
2022-11-09T23:09:46.230Z,1.20
2022-11-09T23:12:14.358Z,1.30
2022-11-09T23:14:59.384Z,1.50
2022-11-09T23:17:44.989Z,1.52
2022-11-09T23:20:18.239Z,1.15
2022-11-09T23:22:45.158Z,1.17
2022-11-09T23:25:31.097Z,1.23
2022-11-09T23:27:58.032Z,1.67
2022-11-09T23:30:29.427Z,1.50
2022-11-09T23:32:56.271Z,1.25
2022-11-09T23:35:23.231Z,1.20
2022-11-09T23:38:00.193Z,1.25
2022-11-09T23:40:29.086Z,1.17
2022-11-09T23:43:07.036Z,0.93
2022-11-09T23:45:42.870Z,1.40
2022-11-09T23:48:16.712Z,1.20
2022-11-09T23:50:50.528Z,1.20
2022-11-09T23:53:17.482Z,1.35
2022-11-09T23:55:47.607Z,1.33
2022-11-09T23:58:14.634Z,1.30
